Time;durP1;ratioP1;P1;durP2;ratioP2;P2;SDS_P1;SDS_P2;PMS_P1;PMS_P2;Temp;Humidity;BMP_temperature;BMP_pressure;BME280_temperature;BME280_humidity;BME280_pressure;Samples;Min_cycle;Max_cycle;Signal;HPM_P1;HPM_P2
2022/09/12 00:01:24;;;;;;;;;;;;;;;28.13;40.08;94307.00;4957351;28;7276;-60
2022/09/12 00:03:53;;;;;;;;;;;;;;;28.13;40.09;94300.72;4956119;28;7254;-60
2022/09/12 00:06:25;;;;;;;;;;;;;;;28.10;39.93;94299.75;4958863;28;7742;-60
2022/09/12 00:08:58;;;;;;;;;;;;;;;28.11;40.08;94292.94;4955395;28;7104;-59
2022/09/12 00:11:34;;;;;;;;;;;;;;;28.12;39.65;94304.75;4945107;28;7289;-60
2022/09/12 00:14:12;;;;;;;;;;;;;;;28.10;39.66;94299.75;4953648;28;7263;-59
2022/09/12 00:16:59;;;;;;;;;;;;;;;28.11;39.55;94297.72;4960981;28;9849;-59
2022/09/12 00:19:29;;;;;;;;;;;;;;;28.09;39.86;94292.75;4958733;28;7311;-60
2022/09/12 00:22:04;;;;;;;;;;;;;;;28.09;39.73;94292.00;4944791;28;7173;-60
2022/09/12 00:24:32;;;;;;;;;;;;;;;28.11;39.84;94292.94;4962950;28;9382;-60
2022/09/12 00:27:05;;;;;;;;;;;;;;;28.08;39.86;94288.47;4994302;28;8650;-60
2022/09/12 00:30:05;;;;;;;;;;;;;;;28.08;40.06;94294.00;4991355;28;6980;-60
2022/09/12 00:32:44;;;;;;;;;;;;;;;28.08;39.70;94287.72;4934541;28;7404;-60
2022/09/12 00:35:12;;;;;;;;;;;;;;;28.06;39.84;94282.72;4936361;28;7692;-60
2022/09/12 00:37:52;;;;;;;;;;;;;;;28.06;39.77;94285.50;4936745;28;9731;-60
2022/09/12 00:40:32;;;;;;;;;;;;;;;28.07;39.59;94287.00;4953212;28;9438;-60
2022/09/12 00:43:39;;;;;;;;;;;;;;;28.06;39.86;94282.72;4936457;28;7392;-60
2022/09/12 00:46:48;;;;;;;;;;;;;;;28.07;39.96;94283.47;4917578;29;7524;-60
2022/09/12 00:49:33;;;;;;;;;;;;;;;28.05;39.33;94277.75;4919408;29;10763;-60
2022/09/12 00:52:42;;;;;;;;;;;;;;;28.04;39.84;94279.00;4922423;29;8080;-60
2022/09/12 00:55:30;;;;;;;;;;;;;;;28.03;39.81;94281.03;4915401;29;7427;-60
2022/09/12 00:58:19;;;;;;;;;;;;;;;28.02;40.08;94270.50;4904677;29;7455;-60
2022/09/12 01:00:46;;;;;;;;;;;;;;;28.01;39.67;94272.53;4919481;29;7057;-60
2022/09/12 01:03:18;;;;;;;;;;;;;;;28.00;39.85;94265.50;4924699;29;7221;-60
2022/09/12 01:06:10;;;;;;;;;;;;;;;28.00;39.73;94271.03;4914994;29;7154;-60
2022/09/12 01:09:03;;;;;;;;;;;;;;;28.01;39.93;94263.47;4934024;28;8257;-59
2022/09/12 01:11:35;;;;;;;;;;;;;;;27.99;39.81;94263.28;4951454;28;7323;-60
2022/09/12 01:14:33;;;;;;;;;;;;;;;27.97;40.08;94263.03;4968545;28;9087;-60
2022/09/12 01:17:01;;;;;;;;;;;;;;;27.94;39.96;94256.53;4900869;29;7247;-60
2022/09/12 01:20:19;;;;;;;;;;;;;;;27.95;40.04;94260.06;4929006;28;7179;-60
2022/09/12 01:22:55;;;;;;;;;;;;;;;27.98;39.90;94256.25;4952445;28;7161;-60
2022/09/12 01:25:22;;;;;;;;;;;;;;;27.99;39.87;94258.47;4948130;28;9500;-60
2022/09/12 01:28:05;;;;;;;;;;;;;;;28.00;39.88;94253.69;4952823;28;8607;-60
2022/09/12 01:30:59;;;;;;;;;;;;;;;27.99;39.76;94255.69;4946894;28;7312;-60
2022/09/12 01:34:21;;;;;;;;;;;;;;;28.00;39.83;94253.69;4950751;28;6919;-60
2022/09/12 01:37:05;;;;;;;;;;;;;;;28.01;39.69;94253.19;4893099;29;9176;-60
2022/09/12 01:40:15;;;;;;;;;;;;;;;28.00;40.34;94246.16;4893216;29;8038;-60
2022/09/12 01:43:19;;;;;;;;;;;;;;;28.01;39.69;94238.59;4836298;29;7209;-60
2022/09/12 01:45:57;;;;;;;;;;;;;;;28.00;39.91;94242.63;4779521;29;7273;-60
2022/09/12 01:48:32;;;;;;;;;;;;;;;28.00;39.46;94242.63;4769153;30;7216;-60
2022/09/12 01:51:09;;;;;;;;;;;;;;;27.99;39.76;94246.69;4784429;30;6997;-60
2022/09/12 01:53:43;;;;;;;;;;;;;;;27.97;39.89;94235.38;4796707;29;7002;-60
2022/09/12 01:56:56;;;;;;;;;;;;;;;27.98;39.94;94234.13;4794620;29;10376;-60
2022/09/12 02:00:09;;;;;;;;;;;;;;;27.96;39.96;94234.63;4796984;29;7074;-60
2022/09/12 02:03:01;;;;;;;;;;;;;;;27.96;39.82;94237.41;4712275;30;7487;-60
2022/09/12 02:05:32;;;;;;;;;;;;;;;27.96;40.01;94237.41;4732524;30;7648;-60
2022/09/12 02:08:32;;;;;;;;;;;;;;;27.96;39.67;94242.19;4725434;30;7790;-60
2022/09/12 02:11:13;;;;;;;;;;;;;;;27.94;39.97;94231.66;4723606;30;7678;-60
2022/09/12 02:13:45;;;;;;;;;;;;;;;27.95;39.75;94233.13;4744256;30;8295;-60
2022/09/12 02:16:19;;;;;;;;;;;;;;;27.95;39.96;94229.66;4725320;30;7644;-60
2022/09/12 02:18:52;;;;;;;;;;;;;;;27.92;39.63;94231.44;4749598;30;7469;-60
2022/09/12 02:21:40;;;;;;;;;;;;;;;27.93;39.87;94232.16;4757546;29;7531;-60
2022/09/12 02:24:32;;;;;;;;;;;;;;;27.93;39.88;94230.16;4836707;29;9434;-60
2022/09/12 02:27:12;;;;;;;;;;;;;;;27.92;39.87;94225.16;4838179;29;7279;-60
2022/09/12 02:29:41;;;;;;;;;;;;;;;27.91;40.00;94229.19;4838734;29;7219;-60
2022/09/12 02:32:18;;;;;;;;;;;;;;;27.90;40.01;94225.69;4840018;29;8425;-61
2022/09/12 02:35:05;;;;;;;;;;;;;;;27.90;39.86;94222.19;4841035;29;7209;-60
2022/09/12 02:37:56;;;;;;;;;;;;;;;27.88;39.73;94221.97;4890866;29;6982;-60
2022/09/12 02:40:24;;;;;;;;;;;;;;;27.87;39.92;94221.22;4930048;29;7240;-60
2022/09/12 02:43:05;;;;;;;;;;;;;;;27.86;39.94;94222.47;4900369;29;7247;-60
2022/09/12 02:45:43;;;;;;;;;;;;;;;27.86;39.92;94221.75;4913247;29;7346;-60
2022/09/12 02:48:33;;;;;;;;;;;;;;;27.87;39.42;94223.25;4983030;28;7143;-60
2022/09/12 02:51:16;;;;;;;;;;;;;;;27.86;39.42;94227.28;4995862;28;7028;-60
2022/09/12 02:53:59;;;;;;;;;;;;;;;27.84;39.97;94221.56;4990997;28;7573;-60
2022/09/12 02:56:29;;;;;;;;;;;;;;;27.84;39.74;94229.84;4995122;28;7011;-60
2022/09/12 02:59:08;;;;;;;;;;;;;;;27.84;39.86;94216.75;5000116;28;7487;-60
2022/09/12 03:01:49;;;;;;;;;;;;;;;27.83;39.96;94225.56;4993130;28;7282;-60
2022/09/12 03:05:02;;;;;;;;;;;;;;;27.83;40.00;94215.28;4989934;28;7350;-60
2022/09/12 03:08:01;;;;;;;;;;;;;;;27.81;39.68;94214.31;4953255;28;8165;-60
2022/09/12 03:11:19;;;;;;;;;;;;;;;27.80;39.80;94208.03;4953397;28;7302;-60
2022/09/12 03:14:16;;;;;;;;;;;;;;;27.80;39.58;94212.81;4973911;28;8494;-60
2022/09/12 03:17:15;;;;;;;;;;;;;;;27.79;39.69;94217.59;4969977;28;7624;-61
2022/09/12 03:20:13;;;;;;;;;;;;;;;27.78;39.76;94207.81;4959652;28;9499;-61
2022/09/12 03:23:19;;;;;;;;;;;;;;;27.75;39.77;94219.94;4958115;28;7156;-60
2022/09/12 03:26:04;;;;;;;;;;;;;;;27.71;39.61;94208.44;4972386;28;8470;-60
2022/09/12 03:29:02;;;;;;;;;;;;;;;27.69;39.88;94215.78;4969867;28;7041;-60
2022/09/12 03:31:58;;;;;;;;;;;;;;;27.67;39.84;94218.31;4930966;28;8083;-60
2022/09/12 03:34:33;;;;;;;;;;;;;;;27.65;40.33;94216.09;4922256;29;6940;-60
2022/09/12 03:37:07;;;;;;;;;;;;;;;27.63;39.91;94218.63;4933871;28;7655;-60
2022/09/12 03:39:44;;;;;;;;;;;;;;;27.64;40.08;94217.38;4944386;28;7230;-60
2022/09/12 03:42:10;;;;;;;;;;;;;;;27.63;40.04;94224.91;4941741;28;9822;-60
2022/09/12 03:44:57;;;;;;;;;;;;;;;27.63;39.59;94224.16;4941007;28;7701;-60
2022/09/12 03:48:04;;;;;;;;;;;;;;;27.61;40.00;94221.94;4983327;28;7219;-60
2022/09/12 03:50:41;;;;;;;;;;;;;;;27.61;39.79;94223.94;4964811;28;7336;-60
2022/09/12 03:53:08;;;;;;;;;;;;;;;27.59;39.75;94224.47;4984171;28;8753;-60
2022/09/12 03:55:40;;;;;;;;;;;;;;;27.60;39.80;94220.44;4983590;28;8419;-60
2022/09/12 03:58:06;;;;;;;;;;;;;;;27.59;39.91;94220.97;4986749;28;9995;-60
2022/09/12 04:00:41;;;;;;;;;;;;;;;27.60;40.13;94220.44;4978643;28;7868;-60
2022/09/12 04:03:08;;;;;;;;;;;;;;;27.57;40.22;94218.00;4953760;28;7203;-60
2022/09/12 04:05:37;;;;;;;;;;;;;;;27.57;40.08;94215.97;4980635;28;7724;-60
2022/09/12 04:08:04;;;;;;;;;;;;;;;27.58;40.10;94220.22;4980406;28;7377;-60
2022/09/12 04:10:32;;;;;;;;;;;;;;;27.57;39.77;94224.25;5009973;28;7545;-60
2022/09/12 04:13:06;;;;;;;;;;;;;;;27.56;39.72;94222.75;5005632;28;6939;-60
2022/09/12 04:15:34;;;;;;;;;;;;;;;27.55;39.86;94226.06;4990384;28;9320;-60
2022/09/12 04:18:01;;;;;;;;;;;;;;;27.56;40.21;94228.28;5008528;28;6983;-60
2022/09/12 04:20:37;;;;;;;;;;;;;;;27.54;39.52;94227.31;4979797;28;7394;-60
2022/09/12 04:23:19;;;;;;;;;;;;;;;27.54;40.05;94219.03;4991846;28;7224;-60
2022/09/12 04:26:00;;;;;;;;;;;;;;;27.52;39.81;94216.81;4985293;28;6960;-60
2022/09/12 04:28:33;;;;;;;;;;;;;;;27.53;40.03;94215.50;5009976;28;7822;-60
2022/09/12 04:31:12;;;;;;;;;;;;;;;27.52;39.82;94221.56;4995035;28;8344;-60
2022/09/12 04:33:38;;;;;;;;;;;;;;;27.52;40.13;94221.56;4987998;28;7315;-60
2022/09/12 04:36:16;;;;;;;;;;;;;;;27.51;40.17;94231.16;4993599;28;9863;-60
2022/09/12 04:38:47;;;;;;;;;;;;;;;27.51;39.78;94220.81;5012984;28;7288;-60
2022/09/12 04:41:32;;;;;;;;;;;;;;;27.51;39.70;94225.63;4996692;28;7190;-60
2022/09/12 04:44:17;;;;;;;;;;;;;;;27.50;39.86;94224.13;4989632;28;7089;-60
2022/09/12 04:46:54;;;;;;;;;;;;;;;27.52;39.57;94227.84;4974556;28;7442;-60
2022/09/12 04:49:29;;;;;;;;;;;;;;;27.50;39.52;94224.88;4993372;28;7069;-60
2022/09/12 04:51:57;;;;;;;;;;;;;;;27.50;40.01;94224.88;4973786;28;7257;-60
2022/09/12 04:54:39;;;;;;;;;;;;;;;27.49;39.41;94225.41;5008078;28;7588;-60
2022/09/12 04:57:06;;;;;;;;;;;;;;;27.49;39.79;94228.91;5006925;28;7206;-60
2022/09/12 04:59:34;;;;;;;;;;;;;;;27.47;39.37;94223.16;5010225;28;9400;-60
2022/09/12 05:02:02;;;;;;;;;;;;;;;27.46;39.88;94227.22;4996521;28;7244;-60
2022/09/12 05:04:28;;;;;;;;;;;;;;;27.44;39.74;94227.00;4989704;28;9120;-60
2022/09/12 05:06:54;;;;;;;;;;;;;;;27.42;39.57;94226.03;5014141;28;7414;-60
2022/09/12 05:09:22;;;;;;;;;;;;;;;27.42;39.50;94232.31;4974948;28;7389;-60
2022/09/12 05:12:17;;;;;;;;;;;;;;;27.45;39.61;94233.25;4993713;28;7264;-60
2022/09/12 05:14:45;;;;;;;;;;;;;;;27.42;39.52;94231.56;4953501;28;6977;-60
2022/09/12 05:17:11;;;;;;;;;;;;;;;27.44;39.77;94231.75;4949572;28;7263;-60
2022/09/12 05:19:53;;;;;;;;;;;;;;;27.41;39.44;94225.28;4949154;28;7198;-60
2022/09/12 05:22:22;;;;;;;;;;;;;;;27.40;39.34;94229.31;4947035;28;7356;-60
2022/09/12 05:24:58;;;;;;;;;;;;;;;27.39;39.55;94225.06;4950438;28;7243;-60
2022/09/12 05:27:24;;;;;;;;;;;;;;;27.40;39.30;94229.31;4961566;28;7242;-60
2022/09/12 05:30:00;;;;;;;;;;;;;;;27.39;39.61;94224.31;4947102;28;7303;-60
2022/09/12 05:32:31;;;;;;;;;;;;;;;27.38;39.27;94228.34;4963818;28;6852;-60
2022/09/12 05:35:15;;;;;;;;;;;;;;;27.38;39.11;94233.88;4952957;28;7220;-61
2022/09/12 05:37:42;;;;;;;;;;;;;;;27.39;39.43;94238.13;4959199;28;7163;-60
2022/09/12 05:40:32;;;;;;;;;;;;;;;27.38;39.46;94236.63;4967757;28;6947;-60
2022/09/12 05:43:11;;;;;;;;;;;;;;;27.36;39.91;94241.94;4965554;28;7479;-60
2022/09/12 05:46:03;;;;;;;;;;;;;;;27.34;39.36;94239.66;4968138;28;7381;-60
2022/09/12 05:48:31;;;;;;;;;;;;;;;27.35;39.33;94237.66;4970353;28;7211;-60
2022/09/12 05:51:16;;;;;;;;;;;;;;;27.36;38.99;94242.66;4973273;28;7710;-60
2022/09/12 05:53:55;;;;;;;;;;;;;;;27.35;39.38;94246.72;4988898;28;7277;-60
2022/09/12 05:56:40;;;;;;;;;;;;;;;27.36;39.39;94258.53;5009954;28;7570;-60
2022/09/12 05:59:15;;;;;;;;;;;;;;;27.35;39.21;94257.75;4976574;28;7288;-60
2022/09/12 06:01:44;;;;;;;;;;;;;;;27.35;38.99;94246.72;5007882;28;7428;-60
2022/09/12 06:04:11;;;;;;;;;;;;;;;27.35;39.47;94254.22;4983674;28;7160;-60
2022/09/12 06:06:49;;;;;;;;;;;;;;;27.33;39.70;94249.22;5003667;28;9391;-60
2022/09/12 06:09:28;;;;;;;;;;;;;;;27.34;39.53;94253.47;4992593;28;7192;-60
2022/09/12 06:11:55;;;;;;;;;;;;;;;27.32;39.54;94253.25;5000973;28;7442;-60
2022/09/12 06:14:21;;;;;;;;;;;;;;;27.32;39.50;94250.50;4991959;28;7108;-60
2022/09/12 06:16:50;;;;;;;;;;;;;;;27.32;39.98;94253.25;4991171;28;7301;-60
2022/09/12 06:19:21;;;;;;;;;;;;;;;27.34;39.61;94255.50;4992869;28;8476;-60
2022/09/12 06:21:56;;;;;;;;;;;;;;;27.33;39.69;94248.47;5007030;28;7335;-60
2022/09/12 06:24:32;;;;;;;;;;;;;;;27.33;39.66;94249.22;4990403;28;9450;-60
2022/09/12 06:27:46;;;;;;;;;;;;;;;27.32;39.34;94244.97;4984316;28;6987;-60
2022/09/12 06:30:23;;;;;;;;;;;;;;;27.33;39.79;94254.00;4949333;29;7255;-60
2022/09/12 06:33:04;;;;;;;;;;;;;;;27.31;39.63;94251.78;4947503;29;9258;-60
2022/09/12 06:35:35;;;;;;;;;;;;;;;27.34;39.42;94250.00;4948655;29;6943;-60
2022/09/12 06:38:10;;;;;;;;;;;;;;;27.36;39.60;94253.72;4949304;29;9475;-60
2022/09/12 06:40:47;;;;;;;;;;;;;;;27.37;39.77;94246.94;4933941;29;7052;-60
2022/09/12 06:43:31;;;;;;;;;;;;;;;27.34;39.56;94250.72;4930702;29;7165;-60
2022/09/12 06:46:03;;;;;;;;;;;;;;;27.33;39.53;94249.22;4944464;29;7796;-60
2022/09/12 06:48:47;;;;;;;;;;;;;;;27.31;39.66;94251.78;4934834;29;7368;-60
2022/09/12 06:51:17;;;;;;;;;;;;;;;27.31;39.21;94251.78;4934298;29;6912;-60
2022/09/12 06:53:46;;;;;;;;;;;;;;;27.30;39.68;94255.78;4948039;29;7350;-60
2022/09/12 06:56:32;;;;;;;;;;;;;;;27.32;39.40;94256.00;4925002;29;8276;-60
2022/09/12 06:59:11;;;;;;;;;;;;;;;27.33;39.56;94256.78;4941844;29;7295;-60
2022/09/12 07:01:46;;;;;;;;;;;;;;;27.34;39.48;94261.03;4927119;29;7001;-60
2022/09/12 07:04:11;;;;;;;;;;;;;;;27.34;39.49;94261.03;4945023;29;7241;-60
2022/09/12 07:06:43;;;;;;;;;;;;;;;27.34;39.71;94266.56;4962955;28;7284;-60
2022/09/12 07:09:12;;;;;;;;;;;;;;;27.33;39.64;94268.56;5004250;28;7444;-60
2022/09/12 07:11:40;;;;;;;;;;;;;;;27.34;39.70;94256.22;5007051;28;7245;-60
2022/09/12 07:14:09;;;;;;;;;;;;;;;27.35;39.85;94265.28;4990153;28;9018;-60
2022/09/12 07:16:53;;;;;;;;;;;;;;;27.35;39.80;94268.81;4990666;28;7214;-60
2022/09/12 07:19:27;;;;;;;;;;;;;;;27.34;39.85;94263.78;4990062;28;7203;-60
2022/09/12 07:21:57;;;;;;;;;;;;;;;27.34;39.71;94261.03;4992972;28;9301;-60
2022/09/12 07:24:26;;;;;;;;;;;;;;;27.35;40.04;94260.53;5008319;28;9129;-60
2022/09/12 07:27:04;;;;;;;;;;;;;;;27.36;39.92;94262.00;4993746;28;9191;-60
2022/09/12 07:29:30;;;;;;;;;;;;;;;27.35;39.81;94260.53;5005398;28;7377;-60
2022/09/12 07:31:56;;;;;;;;;;;;;;;27.32;39.56;94261.53;4985323;28;9414;-60
2022/09/12 07:34:24;;;;;;;;;;;;;;;27.32;39.56;94256.00;5000219;28;7536;-60
2022/09/12 07:36:52;;;;;;;;;;;;;;;27.34;39.85;94256.22;4995619;28;6988;-60
2022/09/12 07:39:37;;;;;;;;;;;;;;;27.35;39.48;94257.75;5013510;28;7290;-59
2022/09/12 07:42:06;;;;;;;;;;;;;;;27.35;39.71;94251.47;4991464;28;7310;-59
2022/09/12 07:44:34;;;;;;;;;;;;;;;27.35;39.39;94251.47;4987849;28;7467;-60
2022/09/12 07:47:27;;;;;;;;;;;;;;;27.35;39.65;94252.25;5015471;28;7066;-60
2022/09/12 07:50:02;;;;;;;;;;;;;;;27.34;39.91;94250.72;4945547;28;7251;-60
2022/09/12 07:52:38;;;;;;;;;;;;;;;27.35;40.04;94246.72;4950413;28;9542;-59
2022/09/12 07:55:25;;;;;;;;;;;;;;;27.36;39.92;94241.94;4930119;29;7192;-59
2022/09/12 07:58:02;;;;;;;;;;;;;;;27.35;39.69;94248.69;4936488;28;7265;-60
2022/09/12 08:00:44;;;;;;;;;;;;;;;27.34;39.80;94245.19;4932591;28;7272;-60
2022/09/12 08:03:10;;;;;;;;;;;;;;;27.36;39.77;94244.72;4944658;28;7161;-59
2022/09/12 08:05:36;;;;;;;;;;;;;;;27.35;39.87;94246.72;4937535;28;7164;-60
2022/09/12 08:08:02;;;;;;;;;;;;;;;27.37;40.06;94246.19;4939386;28;7308;-59
2022/09/12 08:10:28;;;;;;;;;;;;;;;27.37;39.77;94244.16;4936700;28;7036;-60
2022/09/12 08:13:04;;;;;;;;;;;;;;;27.37;39.73;94248.94;4945419;28;6978;-59
2022/09/12 08:15:41;;;;;;;;;;;;;;;27.36;39.90;94250.94;4928590;29;7384;-60
2022/09/12 08:18:19;;;;;;;;;;;;;;;27.35;40.06;94255.00;4930850;28;7413;-60
2022/09/12 08:20:46;;;;;;;;;;;;;;;27.37;39.90;94254.47;4929693;28;8378;-60
2022/09/12 08:23:12;;;;;;;;;;;;;;;27.34;39.61;94250.72;4947043;28;7157;-59
2022/09/12 08:25:38;;;;;;;;;;;;;;;27.37;39.89;94254.47;4937158;28;6920;-60
2022/09/12 08:28:04;;;;;;;;;;;;;;;27.37;39.46;94244.16;4981748;28;9162;-59
2022/09/12 08:30:31;;;;;;;;;;;;;;;27.37;39.97;94251.72;4989664;28;7314;-60
2022/09/12 08:33:06;;;;;;;;;;;;;;;27.38;40.07;94251.16;4991849;28;7250;-59
2022/09/12 08:35:37;;;;;;;;;;;;;;;27.38;39.54;94250.44;4993017;28;7194;-59
2022/09/12 08:38:22;;;;;;;;;;;;;;;27.37;39.76;94255.22;5009156;28;7256;-59
2022/09/12 08:41:23;;;;;;;;;;;;;;;27.37;39.53;94257.97;4984805;28;7306;-59
2022/09/12 08:44:19;;;;;;;;;;;;;;;27.39;39.76;94265.72;4989220;28;6991;-59
2022/09/12 08:47:09;;;;;;;;;;;;;;;27.38;40.08;94261.50;5009838;28;6973;-59
2022/09/12 08:49:57;;;;;;;;;;;;;;;27.40;39.92;94268.00;4993379;28;7795;-59
2022/09/12 08:52:27;;;;;;;;;;;;;;;27.38;39.84;94267.75;4998945;28;7550;-60
2022/09/12 08:54:55;;;;;;;;;;;;;;;27.38;39.69;94267.03;5008935;28;7428;-59
2022/09/12 08:57:23;;;;;;;;;;;;;;;27.38;39.82;94267.03;5012232;28;8311;-60
2022/09/12 08:59:55;;;;;;;;;;;;;;;27.37;40.02;94260.00;4983632;28;7541;-60
2022/09/12 09:02:45;;;;;;;;;;;;;;;27.37;39.65;94269.03;4991736;28;6981;-60
2022/09/12 09:05:24;;;;;;;;;;;;;;;27.37;40.08;94269.03;5007805;28;9644;-59
2022/09/12 09:08:09;;;;;;;;;;;;;;;27.38;39.85;94264.25;5003385;28;7189;-59
2022/09/12 09:10:58;;;;;;;;;;;;;;;27.35;40.35;94263.28;4992206;28;7277;-59
2022/09/12 09:16:56;;;;;;;;;;;;;;;27.35;40.00;94257.75;4995684;28;7302;-60
2022/09/12 09:19:33;;;;;;;;;;;;;;;27.33;39.97;94259.53;4989404;28;7481;-60
2022/09/12 09:22:13;;;;;;;;;;;;;;;27.30;39.96;94261.31;5008318;28;7654;-60
2022/09/12 09:24:48;;;;;;;;;;;;;;;27.30;40.13;94260.56;5008452;28;7155;-60
2022/09/12 09:27:34;;;;;;;;;;;;;;;27.31;39.98;94262.06;5006133;28;9455;-59
2022/09/12 09:30:02;;;;;;;;;;;;;;;27.31;40.28;94257.31;4986402;28;7814;-60
2022/09/12 09:32:39;;;;;;;;;;;;;;;27.31;40.06;94251.78;4980329;28;7579;-60
2022/09/12 09:35:16;;;;;;;;;;;;;;;27.32;40.15;94260.78;5000970;28;7068;-60
2022/09/12 09:38:08;;;;;;;;;;;;;;;27.32;39.77;94255.25;4986465;28;7188;-60
2022/09/12 09:40:57;;;;;;;;;;;;;;;27.32;40.24;94253.25;4985823;28;7772;-60
2022/09/12 09:43:27;;;;;;;;;;;;;;;27.30;40.36;94253.03;4950874;28;7553;-60
2022/09/12 09:45:59;;;;;;;;;;;;;;;27.32;40.23;94244.97;4931886;28;7449;-60
2022/09/12 09:48:31;;;;;;;;;;;;;;;27.33;39.65;94251.25;4945646;28;7201;-59
2022/09/12 09:51:00;;;;;;;;;;;;;;;27.32;39.97;94247.72;4929498;28;7154;-60
2022/09/12 09:53:51;;;;;;;;;;;;;;;27.32;40.16;94256.00;4944237;28;7075;-60
2022/09/12 09:56:19;;;;;;;;;;;;;;;27.33;39.91;94251.25;4929266;28;10732;-60
2022/09/12 09:58:45;;;;;;;;;;;;;;;27.34;39.92;94253.47;4951114;28;9013;-60
2022/09/12 10:01:16;;;;;;;;;;;;;;;27.38;39.76;94258.72;4933833;28;6981;-60
2022/09/12 10:03:53;;;;;;;;;;;;;;;27.38;39.78;94248.41;4949938;28;9816;-59
2022/09/12 10:06:19;;;;;;;;;;;;;;;27.39;40.45;94247.16;4950293;28;7510;-60
2022/09/12 10:08:47;;;;;;;;;;;;;;;27.40;40.36;94245.91;4950549;28;7403;-60
2022/09/12 10:11:22;;;;;;;;;;;;;;;27.39;39.72;94252.69;4950672;28;9296;-60
2022/09/12 10:13:56;;;;;;;;;;;;;;;27.41;39.64;94252.16;4927701;28;7069;-60
2022/09/12 10:16:31;;;;;;;;;;;;;;;27.42;40.04;94251.63;4949174;28;7197;-60
2022/09/12 10:19:18;;;;;;;;;;;;;;;27.44;39.80;94243.56;4946436;28;7007;-60
2022/09/12 10:21:54;;;;;;;;;;;;;;;27.45;40.28;94249.81;4981665;28;9442;-60
2022/09/12 10:24:31;;;;;;;;;;;;;;;27.44;40.18;94243.56;4980131;28;7168;-59
2022/09/12 10:27:08;;;;;;;;;;;;;;;27.45;39.81;94239.50;5001565;28;7373;-60
2022/09/12 10:29:48;;;;;;;;;;;;;;;27.47;40.16;94242.50;4985996;28;7285;-59
2022/09/12 10:32:33;;;;;;;;;;;;;;;27.51;39.74;94253.25;5003364;28;7338;-60
2022/09/12 10:35:07;;;;;;;;;;;;;;;27.50;39.99;94235.94;4989932;28;6926;-60
2022/09/12 10:37:38;;;;;;;;;;;;;;;27.52;39.54;94235.38;4999379;28;7928;-60
2022/09/12 10:40:26;;;;;;;;;;;;;;;27.51;40.28;94239.44;4975211;28;7296;-60
2022/09/12 10:43:36;;;;;;;;;;;;;;;27.54;39.77;94235.59;4992504;28;7202;-59
2022/09/12 10:46:15;;;;;;;;;;;;;;;27.55;39.78;94234.34;4980913;28;6987;-60
2022/09/12 10:48:47;;;;;;;;;;;;;;;27.53;39.97;94237.63;4986462;28;8478;-60
2022/09/12 10:51:36;;;;;;;;;;;;;;;27.53;39.74;94229.34;4985213;28;7492;-60
2022/09/12 10:54:07;;;;;;;;;;;;;;;27.54;40.13;94236.34;4990343;28;7406;-60
2022/09/12 10:56:55;;;;;;;;;;;;;;;27.55;39.71;94232.34;4994271;28;9417;-59
2022/09/12 10:59:38;;;;;;;;;;;;;;;27.58;39.81;94236.78;5007197;28;9745;-60
2022/09/12 11:02:48;;;;;;;;;;;;;;;27.58;39.94;94228.50;5008649;28;9437;-60
2022/09/12 11:05:36;;;;;;;;;;;;;;;27.56;39.78;94233.81;4985100;28;7197;-60
2022/09/12 11:08:13;;;;;;;;;;;;;;;27.57;39.96;94231.81;4990300;28;7036;-60
2022/09/12 11:11:07;;;;;;;;;;;;;;;27.58;40.17;94225.75;5012424;28;7009;-59
2022/09/12 11:14:08;;;;;;;;;;;;;;;27.59;39.61;94215.44;4991267;28;9587;-60
2022/09/12 11:16:53;;;;;;;;;;;;;;;27.60;40.01;94214.91;5008726;28;6925;-59
2022/09/12 11:19:50;;;;;;;;;;;;;;;27.60;39.62;94223.19;5015715;28;7294;-60
2022/09/12 11:23:09;;;;;;;;;;;;;;;27.60;39.85;94222.44;5009591;28;9546;-60
2022/09/12 11:25:50;;;;;;;;;;;;;;;27.59;39.87;94216.19;4950502;28;7129;-59
2022/09/12 11:28:43;;;;;;;;;;;;;;;27.59;39.97;94216.19;4947783;28;7971;-60
2022/09/12 11:31:29;;;;;;;;;;;;;;;27.62;40.05;94220.66;4950775;28;7736;-60
2022/09/12 11:34:07;;;;;;;;;;;;;;;27.61;39.60;94213.63;4934927;28;7256;-59
2022/09/12 11:36:51;;;;;;;;;;;;;;;27.64;39.93;94223.63;4950087;28;7416;-59
2022/09/12 11:39:28;;;;;;;;;;;;;;;27.64;39.76;94215.34;4948282;28;7610;-60
2022/09/12 11:42:21;;;;;;;;;;;;;;;27.67;39.83;94219.06;4946764;28;7224;-60
2022/09/12 11:45:18;;;;;;;;;;;;;;;27.68;39.90;94217.03;4946143;28;7208;-60
2022/09/12 11:47:58;;;;;;;;;;;;;;;27.69;39.86;94215.78;4929983;28;7655;-60
2022/09/12 11:50:29;;;;;;;;;;;;;;;27.71;40.00;94213.25;4929972;28;7188;-60
2022/09/12 11:53:53;;;;;;;;;;;;;;;27.71;39.96;94208.44;4936398;28;9529;-60
2022/09/12 11:56:28;;;;;;;;;;;;;;;27.74;39.83;94215.69;4929026;29;8526;-60
2022/09/12 11:59:20;;;;;;;;;;;;;;;27.74;39.95;94203.88;4912441;29;9414;-60
2022/09/12 12:01:53;;;;;;;;;;;;;;;27.75;39.78;94205.38;4916399;29;7130;-60
2022/09/12 12:04:31;;;;;;;;;;;;;;;27.76;39.92;94202.06;4924251;29;7295;-60
2022/09/12 12:07:09;;;;;;;;;;;;;;;27.78;39.68;94204.31;4928804;28;7202;-59
2022/09/12 12:09:49;;;;;;;;;;;;;;;27.79;39.92;94203.03;4913032;29;9646;-59
2022/09/12 12:12:25;;;;;;;;;;;;;;;27.78;39.76;94193.25;4936429;28;7215;-60
2022/09/12 12:15:20;;;;;;;;;;;;;;;27.80;39.91;94201.75;4944417;28;9355;-59
2022/09/12 12:18:10;;;;;;;;;;;;;;;27.81;39.82;94208.78;4909272;29;8308;-60
2022/09/12 12:20:45;;;;;;;;;;;;;;;27.81;39.59;94200.47;4950885;28;9008;-60
2022/09/12 12:23:39;;;;;;;;;;;;;;;27.83;39.87;94200.69;4927230;29;7036;-60
2022/09/12 12:26:40;;;;;;;;;;;;;;;27.84;39.87;94186.34;4937843;28;7498;-60
2022/09/12 12:29:15;;;;;;;;;;;;;;;27.85;40.12;94187.09;5011048;28;7820;-60
2022/09/12 12:32:02;;;;;;;;;;;;;;;27.85;40.23;94193.38;4989734;28;7476;-59
2022/09/12 12:34:41;;;;;;;;;;;;;;;27.86;39.86;94189.31;4992622;28;7332;-60
2022/09/12 12:37:47;;;;;;;;;;;;;;;27.88;40.16;94180.50;4988669;28;7162;-59
2022/09/12 12:40:28;;;;;;;;;;;;;;;27.87;40.25;94179.75;4991798;28;7221;-60
2022/09/12 12:43:30;;;;;;;;;;;;;;;27.88;40.25;94186.78;4986964;28;7004;-60
2022/09/12 12:46:28;;;;;;;;;;;;;;;27.89;40.18;94171.69;4991547;28;7321;-60
2022/09/12 12:49:26;;;;;;;;;;;;;;;27.92;40.08;94176.16;4937496;28;8278;-60
2022/09/12 12:52:04;;;;;;;;;;;;;;;27.92;39.91;94170.63;4949540;28;7275;-60
2022/09/12 12:54:48;;;;;;;;;;;;;;;27.94;39.83;94167.31;4937265;28;7957;-60
2022/09/12 12:57:32;;;;;;;;;;;;;;;27.96;40.10;94164.78;4953161;28;6958;-60
2022/09/12 13:00:19;;;;;;;;;;;;;;;27.98;39.72;94162.25;4953126;28;7427;-60
2022/09/12 13:03:03;;;;;;;;;;;;;;;27.99;40.64;94158.94;4951789;28;7214;-59
2022/09/12 13:05:43;;;;;;;;;;;;;;;28.02;39.89;94151.59;4948999;28;9522;-60
2022/09/12 13:08:20;;;;;;;;;;;;;;;28.03;40.36;94155.88;4952217;28;7280;-60
2022/09/12 13:10:58;;;;;;;;;;;;;;;28.03;40.23;94153.09;4952549;28;7018;-60
2022/09/12 13:14:11;;;;;;;;;;;;;;;28.06;39.98;94149.25;4952318;28;7281;-60
2022/09/12 13:17:00;;;;;;;;;;;;;;;28.06;40.36;94138.94;4930971;29;7438;-60
2022/09/12 13:19:35;;;;;;;;;;;;;;;28.08;40.06;94138.41;4932257;29;7312;-60
2022/09/12 13:22:40;;;;;;;;;;;;;;;28.10;40.10;94136.59;4917662;29;7489;-59
2022/09/12 13:25:30;;;;;;;;;;;;;;;28.12;40.41;94133.31;4931427;28;7253;-59
2022/09/12 13:28:18;;;;;;;;;;;;;;;28.14;40.16;94136.28;4942954;28;7461;-60
2022/09/12 13:31:18;;;;;;;;;;;;;;;28.15;40.43;94135.00;4955893;28;8453;-59
2022/09/12 13:34:16;;;;;;;;;;;;;;;28.17;40.39;94133.19;4944709;28;8974;-60
2022/09/12 13:37:20;;;;;;;;;;;;;;;28.19;40.57;94124.34;4946835;28;7369;-60
2022/09/12 13:39:56;;;;;;;;;;;;;;;28.22;40.55;94120.53;4941105;28;9113;-59
2022/09/12 13:42:34;;;;;;;;;;;;;;;28.21;40.19;94119.03;4959041;28;7231;-60
2022/09/12 13:45:49;;;;;;;;;;;;;;;28.25;40.33;94131.25;4956185;28;9426;-60
2022/09/12 13:48:29;;;;;;;;;;;;;;;28.27;40.28;94116.91;4948517;28;7176;-59
2022/09/12 13:51:00;;;;;;;;;;;;;;;28.30;40.20;94113.81;4929660;28;9486;-60
2022/09/12 13:53:41;;;;;;;;;;;;;;;28.30;40.54;94110.28;4944080;28;7547;-60
2022/09/12 13:56:07;;;;;;;;;;;;;;;28.32;40.41;94111.25;4927511;28;7254;-60
2022/09/12 13:58:36;;;;;;;;;;;;;;;28.35;40.59;94106.69;4949784;28;9452;-60
2022/09/12 14:01:14;;;;;;;;;;;;;;;28.38;40.41;94111.16;4951901;28;9459;-60
2022/09/12 14:06:43;;;;;;;;;;;;;;;28.41;40.43;94093.47;4960829;28;7375;-59
2022/09/12 14:09:14;;;;;;;;;;;;;;;28.43;40.47;94096.44;4960740;28;7187;-60
2022/09/12 14:11:40;;;;;;;;;;;;;;;28.45;40.43;94102.16;4964574;28;7310;-60
2022/09/12 14:14:30;;;;;;;;;;;;;;;28.47;39.99;94101.66;4968526;28;7509;-60